This is the latest recevied weather packets stored in our database for station/object 9W2BQV-1. If no packets are shown the sender has not sent any weather packets the latest 10 day(s).
| Time | Temp. | Humidity | Pressure | Rain* | Wind** | Luminosity | Snow |
|---|---|---|---|---|---|---|---|
| 1777993739 | 40.56° C | 43% | 1008.4 hPa | - | - | - | - |
| 1777991938 | 40.56° C | 43% | 1008.1 hPa | - | - | - | - |
| 1777990136 | 40.56° C | 43% | 1007.9 hPa | - | - | - | - |
| 1777988335 | 41.11° C | 41% | 1007.6 hPa | - | - | - | - |
| 1777986535 | 41.11° C | 41% | 1007.3 hPa | - | - | - | - |
| 1777984734 | 42.22° C | 39% | 1007.1 hPa | - | - | - | - |
| 1777981132 | 43.33° C | 37% | 1006.1 hPa | - | - | - | - |
| 1777979331 | 42.78° C | 38% | 1005.6 hPa | - | - | - | - |
| 1777977531 | 45° C | 35% | 1005.2 hPa | - | - | - | - |
| 1777975730 | 46.67° C | 32% | 1005 hPa | - | - | - | - |
| 1777973929 | 46.67° C | 32% | 1004.8 hPa | - | - | - | - |
| 1777972128 | 47.22° C | 30% | 1004.9 hPa | - | - | - | - |
| 1777970327 | 48.33° C | 30% | 1005.1 hPa | - | - | - | - |
| 1777968526 | 47.78° C | 30% | 1005.2 hPa | - | - | - | - |
| 1777966726 | 50° C | 28% | 1005.6 hPa | - | - | - | - |
| 1777964925 | 51.11° C | 28% | 1006.3 hPa | - | - | - | - |
| 1777963124 | 50.56° C | 28% | 1007.1 hPa | - | - | - | - |
| 1777961323 | 50.56° C | 28% | 1007.7 hPa | - | - | - | - |
| 1777959521 | 49.44° C | 30% | 1008.3 hPa | - | - | - | - |
| 1777957721 | 48.33° C | 34% | 1009.2 hPa | - | - | - | - |
| 1777877350 | 50.56° C | 29% | 1008 hPa | - | - | - | - |
| 1777875550 | 50° C | 30% | 1008.6 hPa | - | - | - | - |
| 1777873749 | 50° C | 31% | 1009.3 hPa | - | - | - | - |
| 1777871948 | 48.33° C | 34% | 1010 hPa | - | - | - | - |
| 1777870147 | 47.22° C | 34% | 1010.5 hPa | - | - | - | - |
* Rain since midnight (hover to see other rain measurements)
** Current wind speed in m/s (hover to see current wind gust speed)